Aeroporto :
LOGIN :

Iscrizione | Disclaimer

   EN    FR    IT 

 










Sommario :    VFR   VFR Marginale   IFR   IFR Intensivo   IFR Molto Intensivo
Visibilità : 
Base nubi : 
>= 8 km
>= 3000ft
5 / 8 km
1000 / 3000 ft
1500m / 5 km
500 / 1000 ft
800 / 1500m
200 / 500 ft
< 800m
< 200 ft
Simboli :   Temporali  Nebbia  Neve Forte  Precipitazioni Forti  Vento > 20 kt
SIGMETs :   Varie  Temporali  Ghiacco  Turbolenza  Onda orograficha  Ceneri Vulcaniche






- Altitudine del aeroporto : 876 ft
- Codice IATA : MBX


LJMB - Maribor

ULTIMO METAR :
  • 090100Z AUTO 22006KT 190V340 9999 NCD 01/M01 Q1008

METARs OBSOLETI :
  • 090030Z AUTO 21012KT 9999 NCD 01/M02 Q1008
  • 090000Z AUTO 23005KT 200V350 9999 NCD 01/M01 Q1008
  • 082330Z AUTO 24007G17KT 190V290 9999 NCD 01/M01 Q1008
  • 082300Z AUTO VRB02KT 9999 NCD 02/00 Q1009
  • 082230Z AUTO 33005KT 280V010 9000 NCD M01/M02 Q1009

TAF TAF LJMB
Valido dal 09 a 00 ore il 10 a 00 ore UTC


082300Z 0900/0924 33005KT 7000 NSC
BECMG 0907/0909 01005KT 9999 SCT035 BKN060
BECMG 0909/0912 BKN035
TEMPO 0912/0924 36010KT 7000 RA BKN025 OVC050



MetMap, La meteo Aeronautica in un colpo d'occhio ! - Copyright ORBIFLY Dicembre 2007 - Disclaimer

ORBIFLY MET'MAP TEAM :

Programmazione e sviluppo : Alexandra Zaïnal
Concezione : Baudouin d'Aumeries
Aiuto per la programmazione : Marc-Olivier Méhu
Supporto tecnico e logistico : Manuel Goepfert
Aiuto per la traduzione : Arnaldo La Scala

Contatto : metmap@orbifly.com




FONTI E CREDITI :

   NOAA